Polaris — JD2797 — position and weather

sailwx.info

Track history (hours):
 
Tides and Currents Weather Stations Pressure Air Temp Water Temp Dewpoint Dewpoint Depression Visibility Wind Speed Wind Dir Waves Ship Positions

Polaris

Last reported at 2018-Jun-17 21:38 UTC. Time now 2018-Jun-21 01:00 UTC.
Position N 35°27' E 139°40'.

Length 30 m; draft 2.6 m.

Type: Pilot. MMSI: 431000764.

Date/timePositionNaut miles runAvg speedWind from/ knotsBaromVisibWave heightAir tempDewpointWater temp
2018-Jun-17 21:38N 35°27' E 139°40'0 1.2
2018-Jun-17 21:30N 35°27' E 139°40'510.7
2018-Jun-17 21:00N 35°26' E 139°47'611.1
2018-Jun-17 20:30N 35°21' E 139°45'9 6.2
2018-Jun-17 19:07N 35°12' E 139°46'210.9
2018-Jun-17 18:59N 35°14' E 139°46'613.3
2018-Jun-17 18:30N 35°19' E 139°42'713.6
2018-Jun-17 18:01N 35°26' E 139°42'2 3.9
2018-Jun-17 17:30N 35°27' E 139°40'0 0.0
2018-Jun-17 17:00N 35°27' E 139°40'0 0.0
2018-Jun-17 16:30N 35°27' E 139°40'0 0.0
2018-Jun-17 16:00N 35°27' E 139°40'0 0.0
2018-Jun-17 15:30N 35°27' E 139°40'0 0.0
2018-Jun-17 15:00N 35°27' E 139°40'0 0.0
2018-Jun-17 14:30N 35°27' E 139°40'0 0.0
2018-Jun-17 14:00N 35°27' E 139°40'2 5.0
2018-Jun-17 13:31N 35°25' E 139°42'714.1
2018-Jun-17 13:00N 35°18' E 139°43'5 9.0
2018-Jun-17 12:27N 35°14' E 139°46'612.8
2018-Jun-17 12:00N 35°19' E 139°43'713.1
2018-Jun-17 11:30N 35°25' E 139°44'1 1.8
2018-Jun-17 11:00N 35°25' E 139°45'4 7.6
2018-Jun-17 10:30N 35°27' E 139°41'1 2.9
2018-Jun-17 10:00N 35°27' E 139°40'0 0.0
2018-Jun-17 09:30N 35°27' E 139°40'0 0.0
2018-Jun-17 09:00N 35°27' E 139°40'0 0.0
2018-Jun-17 08:30N 35°27' E 139°40'0 0.0
2018-Jun-17 08:00N 35°27' E 139°40'0 0.0
2018-Jun-17 07:30N 35°27' E 139°40'0 0.0
2018-Jun-17 07:00N 35°27' E 139°40'0 0.0
2018-Jun-17 06:30N 35°27' E 139°40'0 0.0
2018-Jun-17 06:00N 35°27' E 139°40'0 0.0
2018-Jun-17 05:30N 35°27' E 139°40'0 0.0
2018-Jun-17 05:00N 35°27' E 139°40'0 0.0
2018-Jun-17 04:30N 35°27' E 139°40'0 0.0
2018-Jun-17 04:00N 35°27' E 139°40'0 0.0
2018-Jun-17 03:30N 35°27' E 139°40'0 0.0
2018-Jun-17 03:01N 35°27' E 139°40'0 0.0
2018-Jun-17 02:30N 35°27' E 139°40'0 0.0
2018-Jun-17 02:00N 35°27' E 139°40'0 0.0
2018-Jun-17 01:30N 35°27' E 139°40'0 0.0
2018-Jun-17 01:00N 35°27' E 139°40'0 0.0
2018-Jun-17 00:30N 35°27' E 139°40'0 0.0
2018-Jun-17 00:00N 35°27' E 139°40'0 0.0
2018-Jun-16 23:30N 35°27' E 139°40'0 0.0
2018-Jun-16 23:00N 35°27' E 139°40'0 0.0
2018-Jun-16 22:30N 35°27' E 139°40'0 0.0
2018-Jun-16 22:00N 35°27' E 139°40'0 0.0
2018-Jun-16 21:30N 35°27' E 139°40'610.9
2018-Jun-16 21:00N 35°25' E 139°46'510.9
2018-Jun-16 20:30N 35°20' E 139°44'1110.9
2018-Jun-16 19:30N 35°09' E 139°47'4 8.2
2018-Jun-16 18:58N 35°14' E 139°46'613.4
2018-Jun-16 18:30N 35°19' E 139°42'713.2
2018-Jun-16 18:00N 35°26' E 139°42'2 4.2
2018-Jun-16 17:31N 35°27' E 139°40'0 0.0
2018-Jun-16 17:01N 35°27' E 139°40'0 0.0
2018-Jun-15 05:14N 35°27' E 139°40'1 6.4
2018-Jun-15 05:00N 35°27' E 139°41'714.9
2018-Jun-15 04:31N 35°19' E 139°42'813.2
2018-Jun-15 03:55N 35°13' E 139°46'511.1
2018-Jun-15 03:30N 35°17' E 139°45'510.3
2018-Jun-15 03:00N 35°22' E 139°42'5 9.4
2018-Jun-15 02:29N 35°26' E 139°44'2 4.2
2018-Jun-15 02:00N 35°28' E 139°45'1 2.0
2018-Jun-15 01:30N 35°28' E 139°44'4 7.4
2018-Jun-15 01:00N 35°27' E 139°40'  
2018-Jun-12 08:15N 35°27' E 139°40'1 6.1
2018-Jun-12 08:00N 35°27' E 139°41'714.6
2018-Jun-12 07:30N 35°19' E 139°42'711.0
2018-Jun-12 06:52N 35°13' E 139°46'411.3
2018-Jun-12 06:31N 35°17' E 139°45'713.6
2018-Jun-12 06:01N 35°24' E 139°43'2 4.7
2018-Jun-12 05:31N 35°25' E 139°45'4 7.7
2018-Jun-12 05:00N 35°27' E 139°41'1 0.1
2018-Jun-11 08:17N 35°27' E 139°40'1 3.7
2018-Jun-11 08:01N 35°27' E 139°41'713.7
2018-Jun-11 07:30N 35°20' E 139°42'8 9.3
2018-Jun-11 06:42N 35°14' E 139°46'212.2
2018-Jun-11 06:30N 35°16' E 139°46'612.6
2018-Jun-11 06:00N 35°22' E 139°42'510.8
2018-Jun-11 05:30N 35°27' E 139°45'1 2.8
2018-Jun-11 05:00N 35°28' E 139°45'0 0.3
2018-Jun-11 04:30N 35°28' E 139°45'4 8.6
2018-Jun-11 04:00N 35°27' E 139°40'0 0.0
2018-Jun-11 03:30N 35°27' E 139°40'0 0.0
2018-Jun-11 03:00N 35°27' E 139°40'0 0.0
2018-Jun-11 02:30N 35°27' E 139°40'0 0.0
2018-Jun-11 02:00N 35°27' E 139°40'0 0.0
2018-Jun-11 01:30N 35°27' E 139°40'0 0.0
2018-Jun-11 01:00N 35°27' E 139°40'0 0.0
2018-Jun-11 00:30N 35°27' E 139°40'0 0.0
2018-Jun-10 23:59N 35°27' E 139°40'0 0.0
2018-Jun-10 23:30N 35°27' E 139°40'0 0.0
2018-Jun-10 23:00N 35°27' E 139°40'0 0.0
2018-Jun-10 22:30N 35°27' E 139°40'0 0.0
2018-Jun-10 22:00N 35°27' E 139°40'0 0.0
2018-Jun-10 21:30N 35°27' E 139°40'0 0.0
2018-Jun-10 21:00N 35°27' E 139°40'0 0.0
2018-Jun-10 20:30N 35°27' E 139°40'0 0.0
2018-Jun-10 20:00N 35°27' E 139°40'0 0.0
2018-Jun-10 19:30N 35°27' E 139°40'0 0.0
2018-Jun-10 19:00N 35°27' E 139°40'0 0.0
2018-Jun-10 18:30N 35°27' E 139°40'0 0.0
2018-Jun-10 18:00N 35°27' E 139°40'0 0.0
2018-Jun-10 17:30N 35°27' E 139°40'0 0.0
2018-Jun-10 17:00N 35°27' E 139°40'0 0.0
2018-Jun-10 16:30N 35°27' E 139°40'0 0.0
2018-Jun-10 16:00N 35°27' E 139°40'0 0.0
2018-Jun-10 15:30N 35°27' E 139°40'0 0.0
2018-Jun-10 15:00N 35°27' E 139°40'0 0.0
2018-Jun-10 14:30N 35°27' E 139°40'0 0.0
2018-Jun-10 13:30N 35°27' E 139°40'0 0.0
2018-Jun-10 13:00N 35°27' E 139°40'0 0.0
2018-Jun-10 12:30N 35°27' E 139°40'0 0.0
2018-Jun-10 12:00N 35°27' E 139°40'0 0.0
2018-Jun-10 11:30N 35°27' E 139°40'0 0.0
2018-Jun-10 11:00N 35°27' E 139°40'0 0.0
2018-Jun-10 10:30N 35°27' E 139°40'0 0.4
2018-Jun-10 10:01N 35°27' E 139°40'611.4
2018-Jun-10 09:30N 35°21' E 139°41'810.1
2018-Jun-10 08:42N 35°14' E 139°46'313.0
2018-Jun-10 08:30N 35°17' E 139°45'612.6
2018-Jun-10 08:00N 35°22' E 139°42'3 6.5
2018-Jun-10 07:30N 35°25' E 139°45'3 6.0
2018-Jun-10 07:00N 35°26' E 139°42'2 4.3
2018-Jun-10 06:30N 35°27' E 139°40'0 0.0
2018-Jun-10 06:00N 35°27' E 139°40'0 0.0
2018-Jun-10 05:30N 35°27' E 139°40'0 0.0
2018-Jun-10 05:00N 35°27' E 139°40'0 0.0
2018-Jun-10 04:30N 35°27' E 139°40'0 0.0
2018-Jun-10 04:00N 35°27' E 139°40'0 0.0
2018-Jun-10 03:30N 35°27' E 139°40'0 0.0
2018-Jun-10 03:00N 35°27' E 139°40'0 0.0
2018-Jun-10 02:31N 35°27' E 139°40'0 0.0
2018-Jun-10 02:00N 35°27' E 139°40'0 0.0
2018-Jun-10 01:30N 35°27' E 139°40'0 0.0
2018-Jun-10 01:00N 35°27' E 139°40'0 0.0
2018-Jun-10 00:30N 35°27' E 139°40'0 0.0
2018-Jun-10 00:00N 35°27' E 139°40'0 0.0
2018-Jun-09 23:30N 35°27' E 139°40'0 0.0
2018-Jun-09 23:00N 35°27' E 139°40'0 0.0
2018-Jun-09 22:30N 35°27' E 139°40'0 0.0
2018-Jun-09 22:00N 35°27' E 139°40'611.9
2018-Jun-09 21:29N 35°24' E 139°47'612.4
2018-Jun-09 21:00N 35°19' E 139°44'6 4.3
2018-Jun-09 19:33N 35°13' E 139°46'114.2
2018-Jun-09 19:30N 35°13' E 139°46'713.6
2018-Jun-09 19:01N 35°19' E 139°42'713.9
2018-Jun-09 18:30N 35°26' E 139°42'2 3.2
2018-Jun-09 18:01N 35°27' E 139°40'0 0.0
2018-Jun-09 17:30N 35°27' E 139°40'0 0.0
2018-Jun-09 17:00N 35°27' E 139°40'0 0.0
2018-Jun-09 16:31N 35°27' E 139°40'0 0.0
2018-Jun-09 16:00N 35°27' E 139°40'0 0.0
2018-Jun-09 15:30N 35°27' E 139°40'0 0.0
2018-Jun-09 14:30N 35°27' E 139°40'0 0.0
2018-Jun-09 14:00N 35°27' E 139°40'0 0.0
2018-Jun-09 13:30N 35°27' E 139°40'0 0.0
2018-Jun-09 13:00N 35°27' E 139°40'0 0.0
2018-Jun-09 12:30N 35°27' E 139°40'1 2.3
2018-Jun-09 12:00N 35°27' E 139°41'713.7
2018-Jun-09 11:30N 35°20' E 139°42'815.2
2018-Jun-09 10:57N 35°12' E 139°46'4 9.9
2018-Jun-09 10:30N 35°17' E 139°45'612.6
2018-Jun-09 10:00N 35°22' E 139°41'1 2.2
2018-Jun-09 09:31N 35°23' E 139°41'1 1.1
2018-Jun-09 09:00N 35°23' E 139°41'4 7.3
2018-Jun-09 08:30N 35°27' E 139°40'0 0.0
2018-Jun-09 08:00N 35°27' E 139°40'0 0.0
2018-Jun-09 07:30N 35°27' E 139°40'0 0.0
2018-Jun-09 07:00N 35°27' E 139°40'0 0.0
2018-Jun-09 06:30N 35°27' E 139°40'0 0.0
2018-Jun-09 06:00N 35°27' E 139°40'0 0.0
2018-Jun-09 05:30N 35°27' E 139°40'0 0.0
2018-Jun-09 05:00N 35°27' E 139°40'0 0.0
2018-Jun-09 04:30N 35°27' E 139°40'0 0.0
2018-Jun-09 04:00N 35°27' E 139°40'0 0.0
2018-Jun-09 03:30N 35°27' E 139°40'0 0.0
2018-Jun-09 03:00N 35°27' E 139°40'0 0.0
2018-Jun-09 02:30N 35°27' E 139°40'0 0.0
2018-Jun-09 02:00N 35°27' E 139°40'0 0.0
2018-Jun-09 01:30N 35°27' E 139°40'0 0.0
2018-Jun-09 01:00N 35°27' E 139°40'0 0.0
2018-Jun-09 00:30N 35°27' E 139°40'0 0.0
2018-Jun-09 00:00N 35°27' E 139°40'0 0.3
2018-Jun-08 23:30N 35°27' E 139°40'1 1.6
2018-Jun-08 23:01N 35°27' E 139°40'4 8.5
2018-Jun-08 22:30N 35°30' E 139°44'3 5.5
2018-Jun-08 22:00N 35°28' E 139°42'1 2.4
2018-Jun-08 21:30N 35°27' E 139°42'2 4.1
2018-Jun-08 21:00N 35°27' E 139°40'0 0.0
2018-Jun-08 06:16N 35°27' E 139°40'1 5.6
2018-Jun-08 06:00N 35°27' E 139°41'714.7
2018-Jun-08 05:30N 35°19' E 139°42'7 9.9
2018-Jun-08 04:50N 35°14' E 139°46'412.6
2018-Jun-08 04:30N 35°18' E 139°44'612.0
2018-Jun-08 04:00N 35°23' E 139°43'7 8.7
2018-Jun-08 03:15N 35°23' E 139°51'1 2.8
2018-Jun-08 02:56N 35°22' E 139°52'0 0.9
2018-Jun-08 02:28N 35°22' E 139°52'510.4
2018-Jun-08 02:00N 35°25' E 139°47'713.4
2018-Jun-08 01:30N 35°27' E 139°39'0 0.8
2018-Jun-08 01:00N 35°27' E 139°39'1 1.4
2018-Jun-08 00:30N 35°27' E 139°40'0 0.0
2018-Jun-08 00:00N 35°27' E 139°40'0 0.0
2018-Jun-07 23:30N 35°27' E 139°40'0 0.0
2018-Jun-07 23:00N 35°27' E 139°40'  
Track history (hours):
 
Tides and Currents Weather Stations Pressure Air Temp Water Temp Dewpoint Dewpoint Depression Visibility Wind Speed Wind Dir Waves Ship Positions

Polaris

Last reported at 2018-Jun-17 21:38 UTC. Time now 2018-Jun-21 01:00 UTC.
Position N 35°27' E 139°40'.

Length 30 m; draft 2.6 m.

Type: Pilot. MMSI: 431000764.

Date/timePositionNaut miles runAvg speedWind from/ knotsBaromVisibWave heightAir tempDewpointWater temp
2018-Jun-17 21:38N 35°27' E 139°40'0 1.2
2018-Jun-17 21:30N 35°27' E 139°40'510.7
2018-Jun-17 21:00N 35°26' E 139°47'611.1
2018-Jun-17 20:30N 35°21' E 139°45'9 6.2
2018-Jun-17 19:07N 35°12' E 139°46'210.9
2018-Jun-17 18:59N 35°14' E 139°46'613.3
2018-Jun-17 18:30N 35°19' E 139°42'713.6
2018-Jun-17 18:01N 35°26' E 139°42'2 3.9
2018-Jun-17 17:30N 35°27' E 139°40'0 0.0
2018-Jun-17 17:00N 35°27' E 139°40'0 0.0
2018-Jun-17 16:30N 35°27' E 139°40'0 0.0
2018-Jun-17 16:00N 35°27' E 139°40'0 0.0
2018-Jun-17 15:30N 35°27' E 139°40'0 0.0
2018-Jun-17 15:00N 35°27' E 139°40'0 0.0
2018-Jun-17 14:30N 35°27' E 139°40'0 0.0
2018-Jun-17 14:00N 35°27' E 139°40'2 5.0
2018-Jun-17 13:31N 35°25' E 139°42'714.1
2018-Jun-17 13:00N 35°18' E 139°43'5 9.0
2018-Jun-17 12:27N 35°14' E 139°46'612.8
2018-Jun-17 12:00N 35°19' E 139°43'713.1
2018-Jun-17 11:30N 35°25' E 139°44'1 1.8
2018-Jun-17 11:00N 35°25' E 139°45'4 7.6
2018-Jun-17 10:30N 35°27' E 139°41'1 2.9
2018-Jun-17 10:00N 35°27' E 139°40'0 0.0
2018-Jun-17 09:30N 35°27' E 139°40'0 0.0
2018-Jun-17 09:00N 35°27' E 139°40'0 0.0
2018-Jun-17 08:30N 35°27' E 139°40'0 0.0
2018-Jun-17 08:00N 35°27' E 139°40'0 0.0
2018-Jun-17 07:30N 35°27' E 139°40'0 0.0
2018-Jun-17 07:00N 35°27' E 139°40'0 0.0
2018-Jun-17 06:30N 35°27' E 139°40'0 0.0
2018-Jun-17 06:00N 35°27' E 139°40'0 0.0
2018-Jun-17 05:30N 35°27' E 139°40'0 0.0
2018-Jun-17 05:00N 35°27' E 139°40'0 0.0
2018-Jun-17 04:30N 35°27' E 139°40'0 0.0
2018-Jun-17 04:00N 35°27' E 139°40'0 0.0
2018-Jun-17 03:30N 35°27' E 139°40'0 0.0
2018-Jun-17 03:01N 35°27' E 139°40'0 0.0
2018-Jun-17 02:30N 35°27' E 139°40'0 0.0
2018-Jun-17 02:00N 35°27' E 139°40'0 0.0
2018-Jun-17 01:30N 35°27' E 139°40'0 0.0
2018-Jun-17 01:00N 35°27' E 139°40'0 0.0
2018-Jun-17 00:30N 35°27' E 139°40'0 0.0
2018-Jun-17 00:00N 35°27' E 139°40'0 0.0
2018-Jun-16 23:30N 35°27' E 139°40'0 0.0
2018-Jun-16 23:00N 35°27' E 139°40'0 0.0
2018-Jun-16 22:30N 35°27' E 139°40'0 0.0
2018-Jun-16 22:00N 35°27' E 139°40'0 0.0
2018-Jun-16 21:30N 35°27' E 139°40'610.9
2018-Jun-16 21:00N 35°25' E 139°46'510.9
2018-Jun-16 20:30N 35°20' E 139°44'1110.9
2018-Jun-16 19:30N 35°09' E 139°47'4 8.2
2018-Jun-16 18:58N 35°14' E 139°46'613.4
2018-Jun-16 18:30N 35°19' E 139°42'713.2
2018-Jun-16 18:00N 35°26' E 139°42'2 4.2
2018-Jun-16 17:31N 35°27' E 139°40'0 0.0
2018-Jun-16 17:01N 35°27' E 139°40'0 0.0
2018-Jun-15 05:14N 35°27' E 139°40'1 6.4
2018-Jun-15 05:00N 35°27' E 139°41'714.9
2018-Jun-15 04:31N 35°19' E 139°42'813.2
2018-Jun-15 03:55N 35°13' E 139°46'511.1
2018-Jun-15 03:30N 35°17' E 139°45'510.3
2018-Jun-15 03:00N 35°22' E 139°42'5 9.4
2018-Jun-15 02:29N 35°26' E 139°44'2 4.2
2018-Jun-15 02:00N 35°28' E 139°45'1 2.0
2018-Jun-15 01:30N 35°28' E 139°44'4 7.4
2018-Jun-15 01:00N 35°27' E 139°40'  
2018-Jun-12 08:15N 35°27' E 139°40'1 6.1
2018-Jun-12 08:00N 35°27' E 139°41'714.6
2018-Jun-12 07:30N 35°19' E 139°42'711.0
2018-Jun-12 06:52N 35°13' E 139°46'411.3
2018-Jun-12 06:31N 35°17' E 139°45'713.6
2018-Jun-12 06:01N 35°24' E 139°43'2 4.7
2018-Jun-12 05:31N 35°25' E 139°45'4 7.7
2018-Jun-12 05:00N 35°27' E 139°41'1 0.1
2018-Jun-11 08:17N 35°27' E 139°40'1 3.7
2018-Jun-11 08:01N 35°27' E 139°41'713.7
2018-Jun-11 07:30N 35°20' E 139°42'8 9.3
2018-Jun-11 06:42N 35°14' E 139°46'212.2
2018-Jun-11 06:30N 35°16' E 139°46'612.6
2018-Jun-11 06:00N 35°22' E 139°42'510.8
2018-Jun-11 05:30N 35°27' E 139°45'1 2.8
2018-Jun-11 05:00N 35°28' E 139°45'0 0.3
2018-Jun-11 04:30N 35°28' E 139°45'4 8.6
2018-Jun-11 04:00N 35°27' E 139°40'0 0.0
2018-Jun-11 03:30N 35°27' E 139°40'0 0.0
2018-Jun-11 03:00N 35°27' E 139°40'0 0.0
2018-Jun-11 02:30N 35°27' E 139°40'0 0.0
2018-Jun-11 02:00N 35°27' E 139°40'0 0.0
2018-Jun-11 01:30N 35°27' E 139°40'0 0.0
2018-Jun-11 01:00N 35°27' E 139°40'0 0.0
2018-Jun-11 00:30N 35°27' E 139°40'0 0.0
2018-Jun-10 23:59N 35°27' E 139°40'0 0.0
2018-Jun-10 23:30N 35°27' E 139°40'0 0.0
2018-Jun-10 23:00N 35°27' E 139°40'0 0.0
2018-Jun-10 22:30N 35°27' E 139°40'0 0.0
2018-Jun-10 22:00N 35°27' E 139°40'0 0.0
2018-Jun-10 21:30N 35°27' E 139°40'0 0.0
2018-Jun-10 21:00N 35°27' E 139°40'0 0.0
2018-Jun-10 20:30N 35°27' E 139°40'0 0.0
2018-Jun-10 20:00N 35°27' E 139°40'0 0.0
2018-Jun-10 19:30N 35°27' E 139°40'0 0.0
2018-Jun-10 19:00N 35°27' E 139°40'0 0.0
2018-Jun-10 18:30N 35°27' E 139°40'0 0.0
2018-Jun-10 18:00N 35°27' E 139°40'0 0.0
2018-Jun-10 17:30N 35°27' E 139°40'0 0.0
2018-Jun-10 17:00N 35°27' E 139°40'0 0.0
2018-Jun-10 16:30N 35°27' E 139°40'0 0.0
2018-Jun-10 16:00N 35°27' E 139°40'0 0.0
2018-Jun-10 15:30N 35°27' E 139°40'0 0.0
2018-Jun-10 15:00N 35°27' E 139°40'0 0.0
2018-Jun-10 14:30N 35°27' E 139°40'0 0.0
2018-Jun-10 13:30N 35°27' E 139°40'0 0.0
2018-Jun-10 13:00N 35°27' E 139°40'0 0.0
2018-Jun-10 12:30N 35°27' E 139°40'0 0.0
2018-Jun-10 12:00N 35°27' E 139°40'0 0.0
2018-Jun-10 11:30N 35°27' E 139°40'0 0.0
2018-Jun-10 11:00N 35°27' E 139°40'0 0.0
2018-Jun-10 10:30N 35°27' E 139°40'0 0.4
2018-Jun-10 10:01N 35°27' E 139°40'611.4
2018-Jun-10 09:30N 35°21' E 139°41'810.1
2018-Jun-10 08:42N 35°14' E 139°46'313.0
2018-Jun-10 08:30N 35°17' E 139°45'612.6
2018-Jun-10 08:00N 35°22' E 139°42'3 6.5
2018-Jun-10 07:30N 35°25' E 139°45'3 6.0
2018-Jun-10 07:00N 35°26' E 139°42'2 4.3
2018-Jun-10 06:30N 35°27' E 139°40'0 0.0
2018-Jun-10 06:00N 35°27' E 139°40'0 0.0
2018-Jun-10 05:30N 35°27' E 139°40'0 0.0
2018-Jun-10 05:00N 35°27' E 139°40'0 0.0
2018-Jun-10 04:30N 35°27' E 139°40'0 0.0
2018-Jun-10 04:00N 35°27' E 139°40'0 0.0
2018-Jun-10 03:30N 35°27' E 139°40'0 0.0
2018-Jun-10 03:00N 35°27' E 139°40'0 0.0
2018-Jun-10 02:31N 35°27' E 139°40'0 0.0
2018-Jun-10 02:00N 35°27' E 139°40'0 0.0
2018-Jun-10 01:30N 35°27' E 139°40'0 0.0
2018-Jun-10 01:00N 35°27' E 139°40'0 0.0
2018-Jun-10 00:30N 35°27' E 139°40'0 0.0
2018-Jun-10 00:00N 35°27' E 139°40'0 0.0
2018-Jun-09 23:30N 35°27' E 139°40'0 0.0
2018-Jun-09 23:00N 35°27' E 139°40'0 0.0
2018-Jun-09 22:30N 35°27' E 139°40'0 0.0
2018-Jun-09 22:00N 35°27' E 139°40'611.9
2018-Jun-09 21:29N 35°24' E 139°47'612.4
2018-Jun-09 21:00N 35°19' E 139°44'6 4.3
2018-Jun-09 19:33N 35°13' E 139°46'114.2
2018-Jun-09 19:30N 35°13' E 139°46'713.6
2018-Jun-09 19:01N 35°19' E 139°42'713.9
2018-Jun-09 18:30N 35°26' E 139°42'2 3.2
2018-Jun-09 18:01N 35°27' E 139°40'0 0.0
2018-Jun-09 17:30N 35°27' E 139°40'0 0.0
2018-Jun-09 17:00N 35°27' E 139°40'0 0.0
2018-Jun-09 16:31N 35°27' E 139°40'0 0.0
2018-Jun-09 16:00N 35°27' E 139°40'0 0.0
2018-Jun-09 15:30N 35°27' E 139°40'0 0.0
2018-Jun-09 14:30N 35°27' E 139°40'0 0.0
2018-Jun-09 14:00N 35°27' E 139°40'0 0.0
2018-Jun-09 13:30N 35°27' E 139°40'0 0.0
2018-Jun-09 13:00N 35°27' E 139°40'0 0.0
2018-Jun-09 12:30N 35°27' E 139°40'1 2.3
2018-Jun-09 12:00N 35°27' E 139°41'713.7
2018-Jun-09 11:30N 35°20' E 139°42'815.2
2018-Jun-09 10:57N 35°12' E 139°46'4 9.9
2018-Jun-09 10:30N 35°17' E 139°45'612.6
2018-Jun-09 10:00N 35°22' E 139°41'1 2.2
2018-Jun-09 09:31N 35°23' E 139°41'1 1.1
2018-Jun-09 09:00N 35°23' E 139°41'4 7.3
2018-Jun-09 08:30N 35°27' E 139°40'0 0.0
2018-Jun-09 08:00N 35°27' E 139°40'0 0.0
2018-Jun-09 07:30N 35°27' E 139°40'0 0.0
2018-Jun-09 07:00N 35°27' E 139°40'0 0.0
2018-Jun-09 06:30N 35°27' E 139°40'0 0.0
2018-Jun-09 06:00N 35°27' E 139°40'0 0.0
2018-Jun-09 05:30N 35°27' E 139°40'0 0.0
2018-Jun-09 05:00N 35°27' E 139°40'0 0.0
2018-Jun-09 04:30N 35°27' E 139°40'0 0.0
2018-Jun-09 04:00N 35°27' E 139°40'0 0.0
2018-Jun-09 03:30N 35°27' E 139°40'0 0.0
2018-Jun-09 03:00N 35°27' E 139°40'0 0.0
2018-Jun-09 02:30N 35°27' E 139°40'0 0.0
2018-Jun-09 02:00N 35°27' E 139°40'0 0.0
2018-Jun-09 01:30N 35°27' E 139°40'0 0.0
2018-Jun-09 01:00N 35°27' E 139°40'0 0.0
2018-Jun-09 00:30N 35°27' E 139°40'0 0.0
2018-Jun-09 00:00N 35°27' E 139°40'0 0.3
2018-Jun-08 23:30N 35°27' E 139°40'1 1.6
2018-Jun-08 23:01N 35°27' E 139°40'4 8.5
2018-Jun-08 22:30N 35°30' E 139°44'3 5.5
2018-Jun-08 22:00N 35°28' E 139°42'1 2.4
2018-Jun-08 21:30N 35°27' E 139°42'2 4.1
2018-Jun-08 21:00N 35°27' E 139°40'0 0.0
2018-Jun-08 06:16N 35°27' E 139°40'1 5.6
2018-Jun-08 06:00N 35°27' E 139°41'714.7
2018-Jun-08 05:30N 35°19' E 139°42'7 9.9
2018-Jun-08 04:50N 35°14' E 139°46'412.6
2018-Jun-08 04:30N 35°18' E 139°44'612.0
2018-Jun-08 04:00N 35°23' E 139°43'7 8.7
2018-Jun-08 03:15N 35°23' E 139°51'1 2.8
2018-Jun-08 02:56N 35°22' E 139°52'0 0.9
2018-Jun-08 02:28N 35°22' E 139°52'510.4
2018-Jun-08 02:00N 35°25' E 139°47'713.4
2018-Jun-08 01:30N 35°27' E 139°39'0 0.8
2018-Jun-08 01:00N 35°27' E 139°39'1 1.4
2018-Jun-08 00:30N 35°27' E 139°40'0 0.0
2018-Jun-08 00:00N 35°27' E 139°40'0 0.0
2018-Jun-07 23:30N 35°27' E 139°40'0 0.0
2018-Jun-07 23:00N 35°27' E 139°40'  

Dump ship's entire track history